• Join FlightAware (Why Join?)
  • Login
  • US Flag 
11:48PM EDT


 

Airport Tracker/Info


-or-


 

Live Flight TrackerFlight Track Log ✈ CCA1226 ✈ 19-Jul-2013 ✈ ZGKL / KWL - ZBAA / PEK

Flight Track Log - Related Links

Times and Time Zones

All times are in EDT time to prevent confusion due to time zone crossing. See the CCA1226 flight status page for this flight to view local times or setup timezone preferences in your user account.

Time Position Orientation Groundspeed Altitude Reporting Facility
EDT Latitude Longitude Course Direction KTS MPH feet Rate Location/Type
10:20AM 25.6843 110.2137 19° North  Level Estimated
10:21AM 25.7775 110.2488 19° North  Level Estimated
10:22AM 25.8707 110.2839 19° North  Level Estimated
10:23AM 25.9639 110.3191 19° North  Level Estimated
10:24AM 26.0571 110.3543 19° North  Level Estimated
10:25AM 26.1503 110.3896 19° North  Level Estimated
10:26AM 26.2435 110.4249 19° North  Level Estimated
10:27AM 26.3366 110.4603 19° North  Level Estimated
10:28AM 26.4298 110.4958 19° North  Level Estimated
10:29AM 26.5229 110.5313 19° North  Level Estimated
10:30AM 26.6161 110.5668 19° North  Level Estimated
10:31AM 26.7092 110.6025 19° North  Level Estimated
10:32AM 26.8023 110.6382 19° North  Level Estimated
10:33AM 26.8954 110.6739 19° North  Level Estimated
10:34AM 26.9885 110.7097 19° North  Level Estimated
10:35AM 27.0816 110.7456 19° North  Level Estimated
10:36AM 27.1747 110.7815 19° North  Level Estimated
10:37AM 27.2678 110.8175 19° North  Level Estimated
10:38AM 27.3608 110.8535 19° North  Level Estimated
10:39AM 27.4539 110.8896 19° North  Level Estimated
10:40AM 27.5469 110.9258 19° North  Level Estimated
10:41AM 27.6400 110.9620 19° North  Level Estimated
10:42AM 27.7330 110.9983 19° North  Level Estimated
10:43AM 27.8260 111.0347 19° North  Level Estimated
10:44AM 27.9190 111.0711 19° North  Level Estimated
10:45AM 28.0120 111.1076 19° North  Level Estimated
10:46AM 28.1050 111.1441 19° North  Level Estimated
10:47AM 28.1980 111.1807 19° North  Level Estimated
10:48AM 28.2910 111.2174 19° North  Level Estimated
10:49AM 28.3839 111.2541 19° North  Level Estimated
10:50AM 28.4769 111.2909 19° North  Level Estimated
10:51AM 28.5698 111.3277 19° North  Level Estimated
10:52AM 28.6627 111.3647 19° North  Level Estimated
10:53AM 28.7557 111.4016 19° North  Level Estimated
10:54AM 28.8486 111.4387 19° North  Level Estimated
10:55AM 28.9415 111.4758 19° North  Level Estimated
10:56AM 29.0344 111.5130 19° North  Level Estimated
10:57AM 29.1272 111.5503 19° North  Level Estimated
10:58AM 29.2201 111.5876 19° North  Level Estimated
10:59AM 29.3130 111.6250 19° North  Level Estimated
11:00AM 29.4058 111.6625 19° North  Level Estimated
11:01AM 29.4987 111.7000 19° North  Level Estimated
11:02AM 29.5915 111.7376 19° North  Level Estimated
11:03AM 29.6843 111.7752 19° North  Level Estimated
11:04AM 29.7771 111.8130 19° North  Level Estimated
11:05AM 29.8699 111.8508 19° North  Level Estimated
11:06AM 29.9627 111.8886 19° North  Level Estimated
11:07AM 30.0555 111.9266 19° North  Level Estimated
11:08AM 30.1482 111.9646 20° North  Level Estimated
11:09AM 30.2410 112.0027 20° North  Level Estimated
11:10AM 30.3337 112.0409 20° North  Level Estimated
11:11AM 30.4264 112.0791 20° North  Level Estimated
11:12AM 30.5192 112.1174 20° North  Level Estimated
11:13AM 30.6119 112.1558 20° North  Level Estimated
11:14AM 30.7046 112.1942 20° North  Level Estimated
11:15AM 30.7973 112.2328 20° North  Level Estimated
11:16AM 30.8899 112.2714 20° North  Level Estimated
11:17AM 30.9826 112.3101 20° North  Level Estimated
11:18AM 31.0752 112.3488 20° North  Level Estimated
11:19AM 31.1679 112.3876 20° North  Level Estimated
11:20AM 31.2605 112.4265 20° North  Level Estimated
11:21AM 31.3531 112.4655 20° North  Level Estimated
11:22AM 31.4457 112.5046 20° North  Level Estimated
11:23AM 31.5383 112.5437 20° North  Level Estimated
11:24AM 31.6309 112.5829 20° North  Level Estimated
11:25AM 31.7234 112.6222 20° North  Level Estimated
11:26AM 31.8160 112.6616 20° North  Level Estimated
11:27AM 31.9085 112.7010 20° North  Level Estimated
11:28AM 32.0011 112.7405 20° North  Level Estimated
11:29AM 32.0936 112.7802 20° North  Level Estimated
11:30AM 32.1861 112.8198 20° North  Level Estimated
11:31AM 32.2786 112.8596 20° North  Level Estimated
11:32AM 32.3711 112.8995 20° North  Level Estimated
11:33AM 32.4635 112.9394 20° North  Level Estimated
11:34AM 32.5560 112.9794 20° North  Level Estimated
11:35AM 32.6484 113.0195 20° North  Level Estimated
11:36AM 32.7409 113.0597 20° North  Level Estimated
11:37AM 32.8333 113.0999 20° North  Level Estimated
11:38AM 32.9257 113.1403 20° North  Level Estimated
11:39AM 33.0181 113.1807 20° North  Level Estimated
11:40AM 33.1105 113.2212 20° North  Level Estimated
11:41AM 33.2028 113.2618 20° North  Level Estimated
11:42AM 33.2952 113.3025 20° North  Level Estimated
11:43AM 33.3875 113.3433 20° North  Level Estimated
11:44AM 33.4799 113.3841 20° North  Level Estimated
11:45AM 33.5722 113.4251 20° North  Level Estimated
11:46AM 33.6645 113.4661 20° North  Level Estimated
11:47AM 33.7567 113.5072 20° North  Level Estimated
11:48AM 33.8490 113.5484 20° North  Level Estimated
11:49AM 33.9413 113.5897 20° North  Level Estimated
11:50AM 34.0335 113.6311 20° North  Level Estimated
11:51AM 34.1257 113.6726 20° North  Level Estimated
11:52AM 34.2180 113.7142 20° North  Level Estimated
11:53AM 34.3102 113.7558 20° North  Level Estimated
11:54AM 34.4024 113.7976 20° North  Level Estimated
11:55AM 34.4945 113.8394 21° North  Level Estimated
11:56AM 34.5867 113.8814 21° North  Level Estimated
11:57AM 34.6788 113.9234 21° North  Level Estimated
11:58AM 34.7710 113.9655 21° North  Level Estimated
11:59AM 34.8631 114.0077 21° North  Level Estimated
12:00PM 34.9552 114.0500 21° North  Level Estimated
12:01PM 35.0473 114.0925 21° North  Level Estimated
12:02PM 35.1393 114.1349 21° North  Level Estimated
12:03PM 35.2314 114.1776 21° North  Level Estimated
12:04PM 35.3234 114.2202 21° North  Level Estimated
12:05PM 35.4155 114.2630 21° North  Level Estimated
12:06PM 35.5075 114.3059 21° North  Level Estimated
12:07PM 35.5995 114.3489 21° North  Level Estimated
12:08PM 35.6914 114.3920 21° North  Level Estimated
12:09PM 35.7834 114.4352 21° North  Level Estimated
12:10PM 35.8754 114.4785 21° North  Level Estimated
12:11PM 35.9673 114.5219 21° North  Level Estimated
12:12PM 36.0592 114.5654 21° North  Level Estimated
12:13PM 36.1511 114.6089 21° North  Level Estimated
12:14PM 36.2430 114.6526 21° North  Level Estimated
12:15PM 36.3349 114.6964 21° North  Level Estimated
12:16PM 36.4267 114.7403 21° North  Level Estimated
12:17PM 36.5186 114.7843 21° North  Level Estimated
12:18PM 36.6104 114.8284 21° North  Level Estimated
12:19PM 36.7022 114.8727 21° North  Level Estimated
12:20PM 36.7940 114.9170 21° North  Level Estimated
12:21PM 36.8858 114.9614 21° North  Level Estimated
12:22PM 36.9775 115.0059 21° North  Level Estimated
12:23PM 37.0693 115.0506 21° North  Level Estimated
12:24PM 37.1610 115.0953 21° North  Level Estimated
12:25PM 37.2527 115.1402 21° North  Level Estimated
12:26PM 37.3444 115.1851 21° North  Level Estimated
12:27PM 37.4361 115.2302 21° North  Level Estimated
12:28PM 37.5277 115.2754 21° North  Level Estimated
12:29PM 37.6194 115.3207 21° North  Level Estimated
12:30PM 37.7110 115.3661 21° North  Level Estimated
12:31PM 37.8026 115.4116 21° North  Level Estimated
12:32PM 37.8942 115.4573 21° North  Level Estimated
12:33PM 37.9857 115.5030 21° North  Level Estimated
12:34PM 38.0773 115.5489 22° Northeast  Level Estimated
12:35PM 38.1688 115.5948 22° Northeast  Level Estimated
12:36PM 38.2603 115.6409 22° Northeast  Level Estimated
12:37PM 38.3518 115.6871 22° Northeast  Level Estimated
12:38PM 38.4433 115.7335 22° Northeast  Level Estimated
12:39PM 38.5348 115.7799 22° Northeast  Level Estimated
12:40PM 38.6262 115.8265 22° Northeast  Level Estimated
12:41PM 38.7176 115.8731 22° Northeast  Level Estimated
12:42PM 38.8091 115.9199 22° Northeast  Level Estimated
12:43PM 38.9004 115.9669 22° Northeast  Level Estimated
12:44PM 38.9918 116.0139 22° Northeast  Level Estimated
12:45PM 39.0832 116.0611 22° Northeast  Level Estimated
12:46PM 39.1745 116.1084 22° Northeast  Level Estimated
12:47PM 39.2658 116.1558 22° Northeast  Level Estimated
12:48PM 39.3571 116.2033 22° Northeast  Level Estimated
12:49PM 39.4484 116.2510 22° Northeast  Level Estimated
12:50PM 39.5396 116.2987 22° Northeast  Level Estimated
12:51PM 39.6308 116.3466 22° Northeast  Level Estimated
12:52PM 39.7220 116.3947 22° Northeast  Level Estimated
12:53PM 39.8132 116.4428 22° Northeast  Level Estimated
12:54PM 39.9044 116.4911 22° Northeast  Level Estimated
12:55PM 39.9956 116.5395 22° Northeast  Level Estimated
12:56PM 40.0801 116.5846 22° Northeast  Level Estimated
12:57PM 40.0801 116.5846 288° West  Level Estimated
12:58PM 40.0801 116.5846 288° West  Level Estimated
12:59PM 40.0801 116.5846 288° West  Level Estimated
01:00PM 40.0801 116.5846 288° West  Level Estimated
01:01PM 40.0801 116.5846 288° West  Level Estimated
01:02PM 40.0801 116.5846 288° West  Level Estimated
01:03PM 40.0801 116.5846 288° West  Level Estimated
01:04PM 40.0801 116.5846 288° West  Level Estimated
01:05PM 40.0801 116.5846 288° West  Level Estimated
01:06PM 40.0801 116.5846 288° West  Level Estimated
01:07PM 40.0801 116.5846 288° West  Level Estimated
01:08PM 40.0801 116.5846 288° West  Level Estimated
01:09PM 40.0801 116.5846 288° West  Level Estimated
01:10PM 40.0801 116.5846 288° West  Level Estimated
01:11PM 40.0801 116.5846 288° West  Level Estimated
01:12PM 40.0801 116.5846 288° West  Level Estimated